Adirondack, New York
Current Conditions -  °F | °C
As of 10:53 PM on Friday 31 Oct 2014 (Local Time) from KGFL Reporting Station
Overcast Overcast  
Wind Chill: 41°   Ceiling: 7500
Heat Index: 45°   Visibility: 10mi
Dew Point: 32°   Wind: 7mph
Humidity: 60%   Direction: 20°NNE
Pressure: 29.99"   Gusts: NA
Location:  43.76°N, 73.76°W
Report Text: KGFL 010253Z AUTO 02006KT 10SM OVC075 07/00 A2999 RMK AO2 SLP161 T00720000 58000
Loading
Personal Weather Stations






























Interactive Weather Map
Tropical Storm Tracking
New forecast layout! Learn more

10-Day Weather Forecast

Advertisements
Track Severe Weather on mobile